sensor_id;sensor_type;location;lat;lon;timestamp;temperature;humidity
40291;DHT22;26000;48.304;13.626;2022-12-13T00:00:11;-6.20;99.90
40291;DHT22;26000;48.304;13.626;2022-12-13T00:02:45;-6.20;99.90
40291;DHT22;26000;48.304;13.626;2022-12-13T00:05:12;-6.20;99.90
40291;DHT22;26000;48.304;13.626;2022-12-13T00:07:38;-6.20;99.90
40291;DHT22;26000;48.304;13.626;2022-12-13T00:10:05;-6.20;99.90
40291;DHT22;26000;48.304;13.626;2022-12-13T00:12:31;-6.20;99.90
40291;DHT22;26000;48.304;13.626;2022-12-13T00:14:56;-6.20;99.90
40291;DHT22;26000;48.304;13.626;2022-12-13T00:17:22;-6.30;99.90
40291;DHT22;26000;48.304;13.626;2022-12-13T00:19:48;-6.20;99.90
40291;DHT22;26000;48.304;13.626;2022-12-13T00:22:14;-6.30;99.90
40291;DHT22;26000;48.304;13.626;2022-12-13T00:24:41;-6.30;99.90
40291;DHT22;26000;48.304;13.626;2022-12-13T00:27:06;-6.40;99.90
40291;DHT22;26000;48.304;13.626;2022-12-13T00:29:32;-6.40;99.90
40291;DHT22;26000;48.304;13.626;2022-12-13T00:31:58;-6.30;99.90
40291;DHT22;26000;48.304;13.626;2022-12-13T00:34:24;-6.30;99.90
40291;DHT22;26000;48.304;13.626;2022-12-13T00:36:49;-6.40;99.90
40291;DHT22;26000;48.304;13.626;2022-12-13T00:39:16;-6.30;99.90
40291;DHT22;26000;48.304;13.626;2022-12-13T00:41:44;-6.20;99.90
40291;DHT22;26000;48.304;13.626;2022-12-13T00:44:11;-6.20;99.90
40291;DHT22;26000;48.304;13.626;2022-12-13T00:46:38;-6.20;99.90
40291;DHT22;26000;48.304;13.626;2022-12-13T00:49:03;-6.20;99.90
40291;DHT22;26000;48.304;13.626;2022-12-13T00:51:31;-6.20;99.90
40291;DHT22;26000;48.304;13.626;2022-12-13T00:53:58;-6.10;99.90
40291;DHT22;26000;48.304;13.626;2022-12-13T00:56:26;-6.20;99.90
40291;DHT22;26000;48.304;13.626;2022-12-13T00:58:52;-6.10;99.90
40291;DHT22;26000;48.304;13.626;2022-12-13T01:01:20;-5.90;99.90
40291;DHT22;26000;48.304;13.626;2022-12-13T01:03:46;-5.90;99.90
40291;DHT22;26000;48.304;13.626;2022-12-13T01:06:21;-5.80;99.90
40291;DHT22;26000;48.304;13.626;2022-12-13T01:08:48;-5.90;99.90
40291;DHT22;26000;48.304;13.626;2022-12-13T01:11:14;-5.90;99.90
40291;DHT22;26000;48.304;13.626;2022-12-13T01:13:40;-5.90;99.90
40291;DHT22;26000;48.304;13.626;2022-12-13T01:16:08;-5.90;99.90
40291;DHT22;26000;48.304;13.626;2022-12-13T01:18:34;-6.00;99.90
40291;DHT22;26000;48.304;13.626;2022-12-13T01:21:11;-6.00;99.90
40291;DHT22;26000;48.304;13.626;2022-12-13T01:23:38;-5.90;99.90
40291;DHT22;26000;48.304;13.626;2022-12-13T01:26:06;-6.00;99.90
40291;DHT22;26000;48.304;13.626;2022-12-13T01:28:32;-6.00;99.90
40291;DHT22;26000;48.304;13.626;2022-12-13T01:31:00;-6.00;99.90
40291;DHT22;26000;48.304;13.626;2022-12-13T01:33:27;-6.10;99.90
40291;DHT22;26000;48.304;13.626;2022-12-13T01:35:53;-6.10;99.90
40291;DHT22;26000;48.304;13.626;2022-12-13T01:38:19;-6.20;99.90
40291;DHT22;26000;48.304;13.626;2022-12-13T01:40:52;-6.20;99.90
40291;DHT22;26000;48.304;13.626;2022-12-13T01:46:02;-6.30;99.90
40291;DHT22;26000;48.304;13.626;2022-12-13T01:48:31;-6.30;99.90
40291;DHT22;26000;48.304;13.626;2022-12-13T01:51:02;-6.30;99.90
40291;DHT22;26000;48.304;13.626;2022-12-13T01:53:32;-6.40;99.90
40291;DHT22;26000;48.304;13.626;2022-12-13T01:56:07;-6.50;99.90
40291;DHT22;26000;48.304;13.626;2022-12-13T01:58:35;-6.50;99.90
40291;DHT22;26000;48.304;13.626;2022-12-13T02:01:01;-6.50;99.90
40291;DHT22;26000;48.304;13.626;2022-12-13T02:03:27;-6.50;99.90
40291;DHT22;26000;48.304;13.626;2022-12-13T02:06:04;-6.40;99.90
40291;DHT22;26000;48.304;13.626;2022-12-13T02:08:31;-6.30;99.90
40291;DHT22;26000;48.304;13.626;2022-12-13T02:10:57;-6.40;99.90
40291;DHT22;26000;48.304;13.626;2022-12-13T02:13:23;-6.40;99.90
40291;DHT22;26000;48.304;13.626;2022-12-13T02:22:23;-6.40;99.90
40291;DHT22;26000;48.304;13.626;2022-12-13T02:25:36;-6.30;99.90
40291;DHT22;26000;48.304;13.626;2022-12-13T02:31:09;-6.20;99.90
40291;DHT22;26000;48.304;13.626;2022-12-13T02:39:16;-6.00;99.90
40291;DHT22;26000;48.304;13.626;2022-12-13T02:41:51;-6.00;99.90
40291;DHT22;26000;48.304;13.626;2022-12-13T02:44:26;-5.90;99.90
40291;DHT22;26000;48.304;13.626;2022-12-13T02:46:57;-5.90;99.90
40291;DHT22;26000;48.304;13.626;2022-12-13T02:49:29;-5.80;99.90
40291;DHT22;26000;48.304;13.626;2022-12-13T02:51:56;-5.80;99.90
40291;DHT22;26000;48.304;13.626;2022-12-13T02:54:23;-5.70;99.90
40291;DHT22;26000;48.304;13.626;2022-12-13T02:56:54;-5.80;99.90
40291;DHT22;26000;48.304;13.626;2022-12-13T02:59:19;-5.80;99.90
40291;DHT22;26000;48.304;13.626;2022-12-13T03:02:11;-5.70;99.90
40291;DHT22;26000;48.304;13.626;2022-12-13T03:08:30;-5.70;99.90
40291;DHT22;26000;48.304;13.626;2022-12-13T03:10:47;-5.70;99.90
40291;DHT22;26000;48.304;13.626;2022-12-13T03:13:24;-5.70;99.90
40291;DHT22;26000;48.304;13.626;2022-12-13T03:18:44;-5.60;99.90
40291;DHT22;26000;48.304;13.626;2022-12-13T03:21:11;-5.50;99.90
40291;DHT22;26000;48.304;13.626;2022-12-13T03:23:37;-5.40;99.90
40291;DHT22;26000;48.304;13.626;2022-12-13T03:26:11;-5.40;99.90
40291;DHT22;26000;48.304;13.626;2022-12-13T03:28:38;-5.40;99.90
40291;DHT22;26000;48.304;13.626;2022-12-13T03:31:04;-5.30;99.90
40291;DHT22;26000;48.304;13.626;2022-12-13T03:33:31;-5.30;99.90
40291;DHT22;26000;48.304;13.626;2022-12-13T03:35:57;-5.30;99.90
40291;DHT22;26000;48.304;13.626;2022-12-13T03:38:23;-5.20;99.90
40291;DHT22;26000;48.304;13.626;2022-12-13T03:41:05;-5.20;99.90
40291;DHT22;26000;48.304;13.626;2022-12-13T03:43:33;-5.20;99.90
40291;DHT22;26000;48.304;13.626;2022-12-13T03:45:58;-5.10;99.90
40291;DHT22;26000;48.304;13.626;2022-12-13T03:48:25;-5.10;99.90
40291;DHT22;26000;48.304;13.626;2022-12-13T03:50:52;-5.10;99.90
40291;DHT22;26000;48.304;13.626;2022-12-13T03:53:19;-5.10;99.90
40291;DHT22;26000;48.304;13.626;2022-12-13T03:55:44;-5.10;99.90
40291;DHT22;26000;48.304;13.626;2022-12-13T03:58:10;-5.00;99.90
40291;DHT22;26000;48.304;13.626;2022-12-13T04:00:36;-4.90;99.90
40291;DHT22;26000;48.304;13.626;2022-12-13T04:03:01;-4.90;99.90
40291;DHT22;26000;48.304;13.626;2022-12-13T04:05:27;-4.80;99.90
40291;DHT22;26000;48.304;13.626;2022-12-13T04:07:54;-4.90;99.90
40291;DHT22;26000;48.304;13.626;2022-12-13T04:10:19;-5.00;99.90
40291;DHT22;26000;48.304;13.626;2022-12-13T04:12:45;-5.00;99.90
40291;DHT22;26000;48.304;13.626;2022-12-13T04:15:29;-4.90;99.90
40291;DHT22;26000;48.304;13.626;2022-12-13T04:17:54;-5.00;99.90
40291;DHT22;26000;48.304;13.626;2022-12-13T04:20:20;-5.00;99.90
40291;DHT22;26000;48.304;13.626;2022-12-13T04:22:46;-5.00;99.90
40291;DHT22;26000;48.304;13.626;2022-12-13T04:25:11;-4.80;99.90
40291;DHT22;26000;48.304;13.626;2022-12-13T04:27:37;-4.90;99.90
40291;DHT22;26000;48.304;13.626;2022-12-13T04:30:06;-5.00;99.90
40291;DHT22;26000;48.304;13.626;2022-12-13T04:32:32;-5.00;99.90
40291;DHT22;26000;48.304;13.626;2022-12-13T04:34:58;-5.00;99.90
40291;DHT22;26000;48.304;13.626;2022-12-13T04:37:24;-5.00;99.90
40291;DHT22;26000;48.304;13.626;2022-12-13T04:39:49;-4.90;99.90
40291;DHT22;26000;48.304;13.626;2022-12-13T04:42:15;-5.10;99.90
40291;DHT22;26000;48.304;13.626;2022-12-13T04:44:41;-5.30;99.90
40291;DHT22;26000;48.304;13.626;2022-12-13T04:47:07;-5.30;99.90
40291;DHT22;26000;48.304;13.626;2022-12-13T04:49:33;-5.20;99.90
40291;DHT22;26000;48.304;13.626;2022-12-13T04:51:59;-5.10;99.90
40291;DHT22;26000;48.304;13.626;2022-12-13T04:54:24;-5.10;99.90
40291;DHT22;26000;48.304;13.626;2022-12-13T04:56:50;-5.10;99.90
40291;DHT22;26000;48.304;13.626;2022-12-13T04:59:16;-5.10;99.90
40291;DHT22;26000;48.304;13.626;2022-12-13T05:01:41;-5.10;99.90
40291;DHT22;26000;48.304;13.626;2022-12-13T05:04:07;-5.00;99.90
40291;DHT22;26000;48.304;13.626;2022-12-13T05:06:33;-4.90;99.90
40291;DHT22;26000;48.304;13.626;2022-12-13T05:08:59;-4.90;99.90
40291;DHT22;26000;48.304;13.626;2022-12-13T05:11:25;-4.90;99.90
40291;DHT22;26000;48.304;13.626;2022-12-13T05:13:50;-4.90;99.90
40291;DHT22;26000;48.304;13.626;2022-12-13T05:16:16;-4.80;99.90
40291;DHT22;26000;48.304;13.626;2022-12-13T05:18:42;-4.80;99.90
40291;DHT22;26000;48.304;13.626;2022-12-13T05:21:10;-4.90;99.90
40291;DHT22;26000;48.304;13.626;2022-12-13T05:23:36;-4.90;99.90
40291;DHT22;26000;48.304;13.626;2022-12-13T05:26:02;-5.00;99.90
40291;DHT22;26000;48.304;13.626;2022-12-13T05:28:29;-5.00;99.90
40291;DHT22;26000;48.304;13.626;2022-12-13T05:30:57;-5.00;99.90
40291;DHT22;26000;48.304;13.626;2022-12-13T05:33:23;-5.10;99.90
40291;DHT22;26000;48.304;13.626;2022-12-13T05:35:50;-5.10;99.90
40291;DHT22;26000;48.304;13.626;2022-12-13T05:38:15;-5.20;99.90
40291;DHT22;26000;48.304;13.626;2022-12-13T05:40:41;-5.20;99.90
40291;DHT22;26000;48.304;13.626;2022-12-13T05:43:11;-5.10;99.90
40291;DHT22;26000;48.304;13.626;2022-12-13T05:45:37;-5.00;99.90
40291;DHT22;26000;48.304;13.626;2022-12-13T05:48:03;-5.00;99.90
40291;DHT22;26000;48.304;13.626;2022-12-13T05:50:29;-5.00;99.90
40291;DHT22;26000;48.304;13.626;2022-12-13T05:52:54;-5.00;99.90
40291;DHT22;26000;48.304;13.626;2022-12-13T05:55:20;-5.00;99.90
40291;DHT22;26000;48.304;13.626;2022-12-13T05:57:46;-5.00;99.90
40291;DHT22;26000;48.304;13.626;2022-12-13T06:00:12;-5.00;99.90
40291;DHT22;26000;48.304;13.626;2022-12-13T06:02:42;-4.90;99.90
40291;DHT22;26000;48.304;13.626;2022-12-13T06:05:09;-5.00;99.90
40291;DHT22;26000;48.304;13.626;2022-12-13T06:07:35;-5.00;99.90
40291;DHT22;26000;48.304;13.626;2022-12-13T06:10:01;-5.00;99.90
40291;DHT22;26000;48.304;13.626;2022-12-13T06:12:27;-5.00;99.90
40291;DHT22;26000;48.304;13.626;2022-12-13T06:14:52;-5.10;99.90
40291;DHT22;26000;48.304;13.626;2022-12-13T06:17:18;-5.30;99.90
40291;DHT22;26000;48.304;13.626;2022-12-13T06:19:44;-5.40;99.90
40291;DHT22;26000;48.304;13.626;2022-12-13T06:22:11;-5.20;99.90
40291;DHT22;26000;48.304;13.626;2022-12-13T06:24:37;-5.10;99.90
40291;DHT22;26000;48.304;13.626;2022-12-13T06:27:02;-1.60;99.90
40291;DHT22;26000;48.304;13.626;2022-12-13T06:29:30;-2.00;99.90
40291;DHT22;26000;48.304;13.626;2022-12-13T06:31:57;-3.00;99.90
40291;DHT22;26000;48.304;13.626;2022-12-13T06:34:23;-3.60;99.90
40291;DHT22;26000;48.304;13.626;2022-12-13T06:36:49;-4.00;99.90
40291;DHT22;26000;48.304;13.626;2022-12-13T06:39:15;-4.30;99.90
40291;DHT22;26000;48.304;13.626;2022-12-13T06:41:40;-4.50;99.90
40291;DHT22;26000;48.304;13.626;2022-12-13T06:44:06;-5.00;99.90
40291;DHT22;26000;48.304;13.626;2022-12-13T06:46:32;-5.10;99.90
40291;DHT22;26000;48.304;13.626;2022-12-13T06:48:58;-5.00;99.90
40291;DHT22;26000;48.304;13.626;2022-12-13T06:51:24;-5.30;99.90
40291;DHT22;26000;48.304;13.626;2022-12-13T06:53:49;-5.20;99.90
40291;DHT22;26000;48.304;13.626;2022-12-13T06:56:15;-5.10;99.90
40291;DHT22;26000;48.304;13.626;2022-12-13T06:58:41;-5.30;99.90
40291;DHT22;26000;48.304;13.626;2022-12-13T07:01:15;-5.30;99.90
40291;DHT22;26000;48.304;13.626;2022-12-13T07:03:41;-5.30;99.90
40291;DHT22;26000;48.304;13.626;2022-12-13T07:06:16;-5.30;99.90
40291;DHT22;26000;48.304;13.626;2022-12-13T07:08:43;-5.30;99.90
40291;DHT22;26000;48.304;13.626;2022-12-13T07:11:22;-5.30;99.90
40291;DHT22;26000;48.304;13.626;2022-12-13T07:13:48;-5.10;99.90
40291;DHT22;26000;48.304;13.626;2022-12-13T07:16:14;-5.00;99.90
40291;DHT22;26000;48.304;13.626;2022-12-13T07:18:40;-4.90;99.90
40291;DHT22;26000;48.304;13.626;2022-12-13T07:21:10;-4.80;99.90
40291;DHT22;26000;48.304;13.626;2022-12-13T07:23:38;-4.80;99.90
40291;DHT22;26000;48.304;13.626;2022-12-13T07:26:05;-4.80;99.90
40291;DHT22;26000;48.304;13.626;2022-12-13T07:28:34;-4.60;99.90
40291;DHT22;26000;48.304;13.626;2022-12-13T07:31:02;-4.50;99.90
40291;DHT22;26000;48.304;13.626;2022-12-13T07:33:28;-4.50;99.90
40291;DHT22;26000;48.304;13.626;2022-12-13T07:36:21;-4.30;99.90
40291;DHT22;26000;48.304;13.626;2022-12-13T07:38:54;-4.10;99.90
40291;DHT22;26000;48.304;13.626;2022-12-13T07:41:21;-3.90;99.90
40291;DHT22;26000;48.304;13.626;2022-12-13T07:43:47;-3.90;99.90
40291;DHT22;26000;48.304;13.626;2022-12-13T07:46:13;-3.80;99.90
40291;DHT22;26000;48.304;13.626;2022-12-13T07:48:39;-3.80;99.90
40291;DHT22;26000;48.304;13.626;2022-12-13T07:51:07;-3.60;99.90
40291;DHT22;26000;48.304;13.626;2022-12-13T07:53:35;-3.60;99.90
40291;DHT22;26000;48.304;13.626;2022-12-13T07:56:04;-3.60;99.90
40291;DHT22;26000;48.304;13.626;2022-12-13T07:58:30;-3.30;99.90
40291;DHT22;26000;48.304;13.626;2022-12-13T08:01:08;-2.90;99.90
40291;DHT22;26000;48.304;13.626;2022-12-13T08:03:35;-2.70;99.90
40291;DHT22;26000;48.304;13.626;2022-12-13T08:06:09;-2.60;99.90
40291;DHT22;26000;48.304;13.626;2022-12-13T08:08:36;-2.40;99.90
40291;DHT22;26000;48.304;13.626;2022-12-13T08:11:04;-2.40;99.90
40291;DHT22;26000;48.304;13.626;2022-12-13T08:13:30;-2.30;99.90
40291;DHT22;26000;48.304;13.626;2022-12-13T08:15:59;-2.10;99.90
40291;DHT22;26000;48.304;13.626;2022-12-13T08:18:25;-2.00;99.90
40291;DHT22;26000;48.304;13.626;2022-12-13T08:20:51;-1.90;99.90
40291;DHT22;26000;48.304;13.626;2022-12-13T08:23:17;-1.90;99.90
40291;DHT22;26000;48.304;13.626;2022-12-13T08:25:44;-1.80;99.90
40291;DHT22;26000;48.304;13.626;2022-12-13T08:28:14;-1.80;99.90
40291;DHT22;26000;48.304;13.626;2022-12-13T08:30:40;-1.90;99.90
40291;DHT22;26000;48.304;13.626;2022-12-13T08:33:05;-2.00;99.90
40291;DHT22;26000;48.304;13.626;2022-12-13T08:35:32;-1.90;99.90
40291;DHT22;26000;48.304;13.626;2022-12-13T08:37:58;-1.80;99.90
40291;DHT22;26000;48.304;13.626;2022-12-13T08:40:23;-1.90;99.90
40291;DHT22;26000;48.304;13.626;2022-12-13T08:42:49;-1.90;99.90
40291;DHT22;26000;48.304;13.626;2022-12-13T08:45:14;-2.00;99.90
40291;DHT22;26000;48.304;13.626;2022-12-13T08:47:40;-1.80;99.90
40291;DHT22;26000;48.304;13.626;2022-12-13T08:50:06;-1.80;99.90
40291;DHT22;26000;48.304;13.626;2022-12-13T08:52:33;-1.70;99.90
40291;DHT22;26000;48.304;13.626;2022-12-13T08:54:59;-1.70;99.90
40291;DHT22;26000;48.304;13.626;2022-12-13T08:57:25;-1.60;99.90
40291;DHT22;26000;48.304;13.626;2022-12-13T08:59:50;-1.50;99.90
40291;DHT22;26000;48.304;13.626;2022-12-13T09:02:16;-1.70;99.90
40291;DHT22;26000;48.304;13.626;2022-12-13T09:04:42;-2.10;99.90
40291;DHT22;26000;48.304;13.626;2022-12-13T09:07:08;-2.00;99.90
40291;DHT22;26000;48.304;13.626;2022-12-13T09:09:33;-1.90;99.90
40291;DHT22;26000;48.304;13.626;2022-12-13T09:11:59;-1.80;99.90
40291;DHT22;26000;48.304;13.626;2022-12-13T09:14:24;-1.80;99.90
40291;DHT22;26000;48.304;13.626;2022-12-13T09:16:50;-1.80;99.90
40291;DHT22;26000;48.304;13.626;2022-12-13T09:19:15;-1.90;99.90
40291;DHT22;26000;48.304;13.626;2022-12-13T09:21:41;-2.40;99.90
40291;DHT22;26000;48.304;13.626;2022-12-13T09:24:07;-2.30;99.90
40291;DHT22;26000;48.304;13.626;2022-12-13T09:26:32;-2.40;99.90
40291;DHT22;26000;48.304;13.626;2022-12-13T09:28:58;-2.40;99.90
40291;DHT22;26000;48.304;13.626;2022-12-13T09:31:23;-2.30;99.90
40291;DHT22;26000;48.304;13.626;2022-12-13T09:33:50;-2.20;99.90
40291;DHT22;26000;48.304;13.626;2022-12-13T09:36:17;-2.00;99.90
40291;DHT22;26000;48.304;13.626;2022-12-13T09:38:43;-1.90;99.90
40291;DHT22;26000;48.304;13.626;2022-12-13T09:41:36;-1.80;99.90
40291;DHT22;26000;48.304;13.626;2022-12-13T09:46:42;-1.70;99.90
40291;DHT22;26000;48.304;13.626;2022-12-13T09:49:34;-1.80;99.90
40291;DHT22;26000;48.304;13.626;2022-12-13T09:52:02;-1.70;99.90
40291;DHT22;26000;48.304;13.626;2022-12-13T09:54:28;-1.70;99.90
40291;DHT22;26000;48.304;13.626;2022-12-13T09:56:55;-1.60;99.90
40291;DHT22;26000;48.304;13.626;2022-12-13T09:59:40;-1.50;99.90
40291;DHT22;26000;48.304;13.626;2022-12-13T10:02:27;-1.40;99.90
40291;DHT22;26000;48.304;13.626;2022-12-13T10:05:11;-1.30;99.90
40291;DHT22;26000;48.304;13.626;2022-12-13T10:07:39;-1.20;99.90
40291;DHT22;26000;48.304;13.626;2022-12-13T10:10:05;-1.40;99.90
40291;DHT22;26000;48.304;13.626;2022-12-13T10:12:32;-1.40;99.90
40291;DHT22;26000;48.304;13.626;2022-12-13T10:15:01;-1.30;99.90
40291;DHT22;26000;48.304;13.626;2022-12-13T10:17:33;-1.40;99.90
40291;DHT22;26000;48.304;13.626;2022-12-13T10:20:00;-1.40;99.90
40291;DHT22;26000;48.304;13.626;2022-12-13T10:22:26;-1.40;99.90
40291;DHT22;26000;48.304;13.626;2022-12-13T10:24:58;-1.40;99.90
40291;DHT22;26000;48.304;13.626;2022-12-13T10:27:29;-1.00;99.90
40291;DHT22;26000;48.304;13.626;2022-12-13T10:32:26;-0.60;99.90
40291;DHT22;26000;48.304;13.626;2022-12-13T10:34:52;-0.50;99.90
40291;DHT22;26000;48.304;13.626;2022-12-13T10:37:30;-0.50;99.90
40291;DHT22;26000;48.304;13.626;2022-12-13T10:39:57;-0.40;99.90
40291;DHT22;26000;48.304;13.626;2022-12-13T10:42:23;-0.50;99.90
40291;DHT22;26000;48.304;13.626;2022-12-13T10:45:08;-0.40;99.90
40291;DHT22;26000;48.304;13.626;2022-12-13T10:47:34;-0.20;99.90
40291;DHT22;26000;48.304;13.626;2022-12-13T10:50:00;-0.20;99.90
40291;DHT22;26000;48.304;13.626;2022-12-13T10:52:33;-0.30;99.90
40291;DHT22;26000;48.304;13.626;2022-12-13T10:55:02;-0.50;99.90
40291;DHT22;26000;48.304;13.626;2022-12-13T10:57:29;-0.40;99.90
40291;DHT22;26000;48.304;13.626;2022-12-13T10:59:55;-0.60;99.90
40291;DHT22;26000;48.304;13.626;2022-12-13T11:02:36;-0.40;99.90
40291;DHT22;26000;48.304;13.626;2022-12-13T11:05:23;-0.40;99.90
40291;DHT22;26000;48.304;13.626;2022-12-13T11:07:49;-0.70;99.90
40291;DHT22;26000;48.304;13.626;2022-12-13T11:10:25;-0.80;99.90
40291;DHT22;26000;48.304;13.626;2022-12-13T11:12:59;-0.70;99.90
40291;DHT22;26000;48.304;13.626;2022-12-13T11:15:26;-0.90;99.90
40291;DHT22;26000;48.304;13.626;2022-12-13T11:18:06;-0.80;99.90
40291;DHT22;26000;48.304;13.626;2022-12-13T11:20:35;-0.60;99.90
40291;DHT22;26000;48.304;13.626;2022-12-13T11:23:13;-0.30;99.90
40291;DHT22;26000;48.304;13.626;2022-12-13T11:25:42;-0.30;99.90
40291;DHT22;26000;48.304;13.626;2022-12-13T11:28:28;-0.30;99.90
40291;DHT22;26000;48.304;13.626;2022-12-13T11:50:17;-0.30;99.90
40291;DHT22;26000;48.304;13.626;2022-12-13T11:52:51;-0.30;99.90
40291;DHT22;26000;48.304;13.626;2022-12-13T11:55:27;-0.40;99.90
40291;DHT22;26000;48.304;13.626;2022-12-13T11:58:24;-0.60;99.90
40291;DHT22;26000;48.304;13.626;2022-12-13T12:00:58;-0.70;99.90
40291;DHT22;26000;48.304;13.626;2022-12-13T12:03:45;-0.60;99.90
40291;DHT22;26000;48.304;13.626;2022-12-13T12:06:30;-0.60;99.90
40291;DHT22;26000;48.304;13.626;2022-12-13T12:08:59;-0.60;99.90
40291;DHT22;26000;48.304;13.626;2022-12-13T12:11:47;-1.20;99.90
40291;DHT22;26000;48.304;13.626;2022-12-13T12:14:23;-1.10;99.90
40291;DHT22;26000;48.304;13.626;2022-12-13T12:16:55;-1.30;99.90
40291;DHT22;26000;48.304;13.626;2022-12-13T12:19:35;-1.50;99.90
40291;DHT22;26000;48.304;13.626;2022-12-13T12:32:46;-1.30;99.90
40291;DHT22;26000;48.304;13.626;2022-12-13T12:35:30;-1.20;99.90
40291;DHT22;26000;48.304;13.626;2022-12-13T12:41:04;-1.20;99.90
40291;DHT22;26000;48.304;13.626;2022-12-13T12:43:36;-1.20;99.90
40291;DHT22;26000;48.304;13.626;2022-12-13T12:49:03;-1.20;99.90
40291;DHT22;26000;48.304;13.626;2022-12-13T12:55:10;-1.20;99.90
40291;DHT22;26000;48.304;13.626;2022-12-13T13:00:44;-1.30;99.90
40291;DHT22;26000;48.304;13.626;2022-12-13T13:06:18;-1.40;99.90
40291;DHT22;26000;48.304;13.626;2022-12-13T13:09:00;-1.40;99.90
40291;DHT22;26000;48.304;13.626;2022-12-13T13:11:29;-1.40;99.90
40291;DHT22;26000;48.304;13.626;2022-12-13T13:18:53;-1.20;99.90
40291;DHT22;26000;48.304;13.626;2022-12-13T13:26:44;-1.30;99.90
40291;DHT22;26000;48.304;13.626;2022-12-13T13:29:31;-1.50;99.90
40291;DHT22;26000;48.304;13.626;2022-12-13T13:34:45;-1.50;99.90
40291;DHT22;26000;48.304;13.626;2022-12-13T13:54:09;-1.80;99.90
40291;DHT22;26000;48.304;13.626;2022-12-13T14:26:48;-1.90;99.90
40291;DHT22;26000;48.304;13.626;2022-12-13T14:29:33;-2.00;99.90
40291;DHT22;26000;48.304;13.626;2022-12-13T14:32:29;-1.90;99.90
40291;DHT22;26000;48.304;13.626;2022-12-13T14:34:55;-1.90;99.90
40291;DHT22;26000;48.304;13.626;2022-12-13T14:39:46;-2.10;99.90
40291;DHT22;26000;48.304;13.626;2022-12-13T14:42:27;-2.10;99.90
40291;DHT22;26000;48.304;13.626;2022-12-13T14:44:55;-2.10;99.90
40291;DHT22;26000;48.304;13.626;2022-12-13T14:47:39;-2.00;99.90
40291;DHT22;26000;48.304;13.626;2022-12-13T14:50:05;-2.00;99.90
40291;DHT22;26000;48.304;13.626;2022-12-13T14:52:36;-2.00;99.90
40291;DHT22;26000;48.304;13.626;2022-12-13T14:55:04;-2.10;99.90
40291;DHT22;26000;48.304;13.626;2022-12-13T14:57:33;-2.10;99.90
40291;DHT22;26000;48.304;13.626;2022-12-13T15:00:00;-2.10;99.90
40291;DHT22;26000;48.304;13.626;2022-12-13T15:02:29;-2.20;99.90
40291;DHT22;26000;48.304;13.626;2022-12-13T15:04:57;-2.10;99.90
40291;DHT22;26000;48.304;13.626;2022-12-13T15:07:43;-2.30;99.90
40291;DHT22;26000;48.304;13.626;2022-12-13T15:10:23;-2.40;99.90
40291;DHT22;26000;48.304;13.626;2022-12-13T15:12:51;-2.30;99.90
40291;DHT22;26000;48.304;13.626;2022-12-13T15:15:29;-2.40;99.90
40291;DHT22;26000;48.304;13.626;2022-12-13T15:18:15;-2.40;99.90
40291;DHT22;26000;48.304;13.626;2022-12-13T15:20:43;-2.40;99.90
40291;DHT22;26000;48.304;13.626;2022-12-13T15:23:22;-2.50;99.90
40291;DHT22;26000;48.304;13.626;2022-12-13T15:26:08;-2.60;99.90
40291;DHT22;26000;48.304;13.626;2022-12-13T15:28:38;-2.30;99.90
40291;DHT22;26000;48.304;13.626;2022-12-13T15:31:05;-2.30;99.90
40291;DHT22;26000;48.304;13.626;2022-12-13T15:33:31;-2.40;99.90
40291;DHT22;26000;48.304;13.626;2022-12-13T15:36:35;-2.60;99.90
40291;DHT22;26000;48.304;13.626;2022-12-13T15:39:00;-2.60;99.90
40291;DHT22;26000;48.304;13.626;2022-12-13T15:41:33;-2.60;99.90
40291;DHT22;26000;48.304;13.626;2022-12-13T15:44:07;-2.60;99.90
40291;DHT22;26000;48.304;13.626;2022-12-13T15:46:43;-2.60;99.90
40291;DHT22;26000;48.304;13.626;2022-12-13T15:52:05;-2.80;99.90
40291;DHT22;26000;48.304;13.626;2022-12-13T15:54:58;-2.80;99.90
40291;DHT22;26000;48.304;13.626;2022-12-13T15:57:27;-2.80;99.90
40291;DHT22;26000;48.304;13.626;2022-12-13T16:00:13;-2.90;99.90
40291;DHT22;26000;48.304;13.626;2022-12-13T16:03:12;-2.90;99.90
40291;DHT22;26000;48.304;13.626;2022-12-13T16:06:05;-2.80;99.90
40291;DHT22;26000;48.304;13.626;2022-12-13T16:08:34;-2.90;99.90
40291;DHT22;26000;48.304;13.626;2022-12-13T16:11:01;-2.90;99.90
40291;DHT22;26000;48.304;13.626;2022-12-13T16:13:32;-2.90;99.90
40291;DHT22;26000;48.304;13.626;2022-12-13T16:16:00;-2.90;99.90
40291;DHT22;26000;48.304;13.626;2022-12-13T16:18:31;-2.80;99.90
40291;DHT22;26000;48.304;13.626;2022-12-13T16:20:57;-2.90;99.90
40291;DHT22;26000;48.304;13.626;2022-12-13T16:23:24;-3.00;99.90
40291;DHT22;26000;48.304;13.626;2022-12-13T16:25:49;-3.10;99.90
40291;DHT22;26000;48.304;13.626;2022-12-13T16:28:16;-3.00;99.90
40291;DHT22;26000;48.304;13.626;2022-12-13T16:33:21;-2.90;99.90
40291;DHT22;26000;48.304;13.626;2022-12-13T16:35:47;-3.00;99.90
40291;DHT22;26000;48.304;13.626;2022-12-13T16:38:13;-3.00;99.90
40291;DHT22;26000;48.304;13.626;2022-12-13T16:40:40;-3.00;99.90
40291;DHT22;26000;48.304;13.626;2022-12-13T16:43:06;-3.00;99.90
40291;DHT22;26000;48.304;13.626;2022-12-13T16:45:41;-2.90;99.90
40291;DHT22;26000;48.304;13.626;2022-12-13T16:48:08;-3.00;99.90
40291;DHT22;26000;48.304;13.626;2022-12-13T16:50:34;-3.00;99.90
40291;DHT22;26000;48.304;13.626;2022-12-13T16:53:02;-2.90;99.90
40291;DHT22;26000;48.304;13.626;2022-12-13T16:55:27;-2.90;99.90
40291;DHT22;26000;48.304;13.626;2022-12-13T16:58:01;-2.90;99.90
40291;DHT22;26000;48.304;13.626;2022-12-13T17:00:28;-3.00;99.90
40291;DHT22;26000;48.304;13.626;2022-12-13T17:02:55;-3.00;99.90
40291;DHT22;26000;48.304;13.626;2022-12-13T17:05:22;-3.20;99.90
40291;DHT22;26000;48.304;13.626;2022-12-13T17:07:48;-3.30;99.90
40291;DHT22;26000;48.304;13.626;2022-12-13T17:10:14;-3.20;99.90
40291;DHT22;26000;48.304;13.626;2022-12-13T17:12:40;-3.10;99.90
40291;DHT22;26000;48.304;13.626;2022-12-13T17:15:06;-3.00;99.90
40291;DHT22;26000;48.304;13.626;2022-12-13T17:17:34;-3.10;99.90
40291;DHT22;26000;48.304;13.626;2022-12-13T17:20:00;-3.10;99.90
40291;DHT22;26000;48.304;13.626;2022-12-13T17:22:25;-3.10;99.90
40291;DHT22;26000;48.304;13.626;2022-12-13T17:24:51;-3.20;99.90
40291;DHT22;26000;48.304;13.626;2022-12-13T17:27:17;-3.30;99.90
40291;DHT22;26000;48.304;13.626;2022-12-13T17:29:42;-3.20;99.90
40291;DHT22;26000;48.304;13.626;2022-12-13T17:32:08;-3.20;99.90
40291;DHT22;26000;48.304;13.626;2022-12-13T17:34:34;-3.20;99.90
40291;DHT22;26000;48.304;13.626;2022-12-13T17:36:59;-0.20;99.90
40291;DHT22;26000;48.304;13.626;2022-12-13T17:39:25;0.90;99.90
40291;DHT22;26000;48.304;13.626;2022-12-13T17:41:51;0.20;99.90
40291;DHT22;26000;48.304;13.626;2022-12-13T17:44:16;-0.40;99.90
40291;DHT22;26000;48.304;13.626;2022-12-13T17:46:42;-0.80;99.90
40291;DHT22;26000;48.304;13.626;2022-12-13T17:49:09;-1.30;99.90
40291;DHT22;26000;48.304;13.626;2022-12-13T17:51:36;-1.60;99.90